Time;durP1;ratioP1;P1;durP2;ratioP2;P2;SDS_P1;SDS_P2;PMS_P1;PMS_P2;Temp;Humidity;BMP_temperature;BMP_pressure;BME280_temperature;BME280_humidity;BME280_pressure;Samples;Min_cycle;Max_cycle;Signal;HPM_P1;HPM_P2
2022/06/09 00:02:04;;;;;;;3.90;1.90;;;;;;;32.78;31.11;93339.22;5060855;28;20575;-60
2022/06/09 00:04:48;;;;;;;3.90;2.27;;;;;;;33.14;30.07;93341.31;5048952;28;20201;-60
2022/06/09 00:07:33;;;;;;;4.73;2.13;;;;;;;32.71;30.72;93337.97;5050552;28;20209;-61
2022/06/09 00:10:24;;;;;;;7.43;2.27;;;;;;;33.04;32.03;93344.44;5053342;28;20199;-60
2022/06/09 00:13:08;;;;;;;5.20;2.10;;;;;;;34.27;29.77;93339.94;5053691;28;20204;-60
2022/06/09 00:15:52;;;;;;;2.97;2.00;;;;;;;34.18;29.87;93338.75;5051298;28;20244;-60
2022/06/09 00:18:37;;;;;;;3.57;2.50;;;;;;;33.17;30.59;93341.97;5058297;28;20625;-62
2022/06/09 00:21:23;;;;;;;4.70;2.30;;;;;;;33.01;29.84;93343.09;5057306;28;20705;-62
2022/06/09 00:24:07;;;;;;;4.90;2.27;;;;;;;33.06;30.37;93353.13;5078717;28;20231;-62
2022/06/09 00:26:50;;;;;;;5.40;2.20;;;;;;;34.62;29.58;93352.06;5051600;28;20268;-62
2022/06/09 00:29:34;;;;;;;5.17;2.90;;;;;;;33.27;30.49;93351.19;5048265;28;20610;-62
2022/06/09 00:32:18;;;;;;;6.27;2.13;;;;;;;33.26;29.72;93367.22;5055047;28;20209;-62
2022/06/09 00:35:03;;;;;;;5.23;2.73;;;;;;;31.75;32.08;93353.56;5052300;28;20201;-62
2022/06/09 00:37:47;;;;;;;6.93;2.50;;;;;;;32.24;31.40;93353.41;5046256;28;20285;-62
2022/06/09 00:40:32;;;;;;;4.53;2.37;;;;;;;33.89;30.14;93359.84;5060349;28;20591;-62
2022/06/09 00:43:16;;;;;;;5.20;2.57;;;;;;;33.81;30.67;93362.97;5051007;28;20194;-62
2022/06/09 00:46:10;;;;;;;7.17;2.50;;;;;;;31.84;32.12;93368.63;5052162;28;20227;-62
2022/06/09 00:49:00;;;;;;;8.23;2.43;;;;;;;33.50;29.56;93371.00;5054410;28;20243;-59
2022/06/09 00:51:58;;;;;;;3.13;2.60;;;;;;;34.01;29.33;93379.88;5058125;28;20229;-59
2022/06/09 00:54:50;;;;;;;4.87;2.40;;;;;;;34.41;29.63;93389.75;5052050;28;20197;-60
2022/06/09 00:57:40;;;;;;;3.63;2.77;;;;;;;34.25;29.50;93380.75;5046503;28;20190;-59
2022/06/09 01:00:31;;;;;;;2.70;2.50;;;;;;;32.92;30.70;93382.47;5042681;28;20288;-59
2022/06/09 01:03:18;;;;;;;7.30;3.00;;;;;;;31.57;32.71;93374.84;5056252;28;20225;-59
2022/06/09 01:06:07;;;;;;;4.03;2.17;;;;;;;34.07;29.76;93385.53;5057108;28;20240;-59
2022/06/09 01:08:58;;;;;;;3.10;2.47;;;;;;;32.96;30.46;93391.06;5041424;28;20595;-59
2022/06/09 01:11:44;;;;;;;3.17;2.40;;;;;;;32.02;31.84;93369.03;5056289;28;20245;-59
2022/06/09 01:14:32;;;;;;;3.43;2.10;;;;;;;32.68;31.17;93385.88;5060040;28;20746;-59
2022/06/09 01:17:26;;;;;;;4.13;2.13;;;;;;;33.20;31.52;93390.59;5053963;28;20193;-59
2022/06/09 01:20:19;;;;;;;7.27;2.50;;;;;;;32.51;30.84;93389.09;5061754;28;20260;-59
2022/06/09 01:23:31;;;;;;;3.40;2.47;;;;;;;33.96;29.87;93384.38;5057840;28;20205;-59
2022/06/09 01:26:18;;;;;;;5.50;3.13;;;;;;;34.38;29.27;93390.56;5056334;28;20999;-59
2022/06/09 01:29:20;;;;;;;5.50;2.60;;;;;;;33.99;29.03;93388.66;5060871;28;20225;-59
2022/06/09 01:32:10;;;;;;;3.07;2.60;;;;;;;34.08;29.72;93381.13;5058908;28;20560;-61
2022/06/09 01:35:13;;;;;;;7.03;3.13;;;;;;;34.43;29.42;93386.78;5057220;28;20244;-61
2022/06/09 01:37:59;;;;;;;4.43;2.83;;;;;;;34.70;28.09;93383.09;5058422;28;20197;-60
2022/06/09 01:40:43;;;;;;;7.27;3.33;;;;;;;35.23;29.46;93388.13;5058905;28;20217;-60
2022/06/09 01:43:27;;;;;;;5.73;2.97;;;;;;;35.12;29.70;93387.00;5054466;28;20197;-60
2022/06/09 01:46:20;;;;;;;6.40;3.10;;;;;;;34.98;29.11;93387.41;5052728;28;20244;-61
2022/06/09 01:49:14;;;;;;;4.10;2.87;;;;;;;34.86;29.38;93383.38;5053552;28;20273;-61
2022/06/09 01:51:58;;;;;;;5.17;2.83;;;;;;;34.79;28.31;93390.88;5051577;28;20201;-60
2022/06/09 01:54:43;;;;;;;4.73;3.20;;;;;;;35.29;29.78;93385.03;5066108;28;20204;-60
2022/06/09 01:57:33;;;;;;;4.30;3.30;;;;;;;34.88;27.36;93386.22;5062484;28;20252;-60
2022/06/09 02:00:19;;;;;;;3.53;3.00;;;;;;;34.74;29.15;93383.03;5061003;28;20298;-60
2022/06/09 02:03:07;;;;;;;4.37;2.70;;;;;;;34.58;28.80;93377.63;5063919;28;20296;-61
2022/06/09 02:05:55;;;;;;;4.83;3.33;;;;;;;34.77;30.60;93387.28;5053346;28;20203;-60
2022/06/09 02:08:39;;;;;;;12.17;3.30;;;;;;;34.87;29.11;93384.09;5060296;28;20576;-60
2022/06/09 02:11:24;;;;;;;6.30;2.53;;;;;;;33.51;29.31;93381.88;5054760;28;20193;-60
2022/06/09 02:14:09;;;;;;;4.17;2.70;;;;;;;33.73;29.81;93386.44;5053073;28;20208;-58
2022/06/09 02:16:54;;;;;;;2.83;2.50;;;;;;;33.86;29.65;93375.91;5060266;28;20201;-58
2022/06/09 02:19:40;;;;;;;3.80;2.70;;;;;;;33.52;29.69;93373.84;5061319;28;20200;-58
2022/06/09 02:22:24;;;;;;;6.03;3.30;;;;;;;33.84;29.32;93378.88;5050961;28;20198;-58
2022/06/09 02:25:08;;;;;;;7.40;2.83;;;;;;;34.00;30.12;93378.47;5058267;28;20258;-57
2022/06/09 02:27:52;;;;;;;2.57;2.30;;;;;;;34.01;30.81;93379.88;5058109;28;20213;-58
2022/06/09 02:30:37;;;;;;;2.90;2.47;;;;;;;31.84;33.12;93374.44;5061861;28;20251;-58
2022/06/09 02:33:21;;;;;;;3.07;1.93;;;;;;;31.42;31.77;93367.84;5054524;28;20264;-58
2022/06/09 02:36:06;;;;;;;4.10;2.53;;;;;;;31.36;32.88;93370.84;5054706;28;20274;-58
2022/06/09 02:38:51;;;;;;;3.77;2.13;;;;;;;32.68;31.27;93380.09;5055086;28;20198;-58
2022/06/09 02:41:35;;;;;;;2.83;2.20;;;;;;;32.18;31.21;93388.31;5055117;28;20228;-58
2022/06/09 02:44:19;;;;;;;7.60;2.47;;;;;;;32.77;31.53;93384.25;5048998;28;20281;-58
2022/06/09 02:47:04;;;;;;;4.20;2.60;;;;;;;33.23;31.37;93380.34;5053044;28;20577;-58
2022/06/09 02:49:47;;;;;;;8.13;2.47;;;;;;;33.86;29.83;93393.38;5058120;28;20197;-58
2022/06/09 02:52:32;;;;;;;4.93;2.70;;;;;;;34.52;30.31;93398.88;5053052;28;20221;-58
2022/06/09 02:55:16;;;;;;;6.70;2.83;;;;;;;34.41;29.99;93389.03;5057285;28;20198;-59
2022/06/09 02:58:01;;;;;;;4.23;2.90;;;;;;;34.97;29.92;93388.91;5057072;28;20205;-59
2022/06/09 03:00:45;;;;;;;3.10;2.80;;;;;;;34.71;28.96;93385.28;5053259;28;20748;-58
2022/06/09 03:03:29;;;;;;;3.97;2.77;;;;;;;35.15;29.48;93385.44;5060112;28;20256;-59
2022/06/09 03:06:13;;;;;;;3.00;2.70;;;;;;;34.06;29.83;93387.03;5064120;28;20196;-58
2022/06/09 03:08:58;;;;;;;5.57;2.70;;;;;;;34.65;29.90;93394.16;5052525;28;20248;-59
2022/06/09 03:11:42;;;;;;;5.17;2.73;;;;;;;33.42;30.30;93382.81;5063249;28;20200;-59
2022/06/09 03:14:27;;;;;;;6.93;2.63;;;;;;;33.64;30.35;93396.78;5052923;28;20273;-59
2022/06/09 03:17:11;;;;;;;3.30;2.93;;;;;;;34.94;30.51;93388.25;5056001;28;20209;-59
2022/06/09 03:19:55;;;;;;;5.10;3.00;;;;;;;34.66;29.09;93401.41;5063323;28;20227;-59
2022/06/09 03:22:39;;;;;;;11.00;2.83;;;;;;;34.68;28.36;93397.72;5057332;28;20201;-59
2022/06/09 03:25:23;;;;;;;6.73;2.67;;;;;;;34.30;29.46;93396.59;5053374;28;20200;-59
2022/06/09 03:28:10;;;;;;;3.43;2.53;;;;;;;33.20;28.72;93398.56;5053214;28;20225;-59
2022/06/09 03:30:55;;;;;;;4.93;2.87;;;;;;;34.84;29.14;93403.81;5053479;28;20235;-59
2022/06/09 03:33:38;;;;;;;6.33;2.97;;;;;;;34.50;30.15;93396.06;5050285;28;20682;-59
2022/06/09 03:36:23;;;;;;;4.83;2.47;;;;;;;34.04;28.88;93401.63;5055258;28;20270;-59
2022/06/09 03:39:06;;;;;;;4.07;2.20;;;;;;;34.76;29.54;93404.03;5061423;28;20217;-58
2022/06/09 03:41:51;;;;;;;4.17;2.53;;;;;;;34.47;29.58;93404.13;5055574;28;20272;-59
2022/06/09 03:44:35;;;;;;;6.70;2.50;;;;;;;35.23;29.71;93393.97;5045633;28;20200;-58
2022/06/09 03:47:19;;;;;;;6.40;2.60;;;;;;;35.40;29.90;93391.97;5057927;28;20678;-58
2022/06/09 03:50:06;;;;;;;5.63;2.87;;;;;;;35.76;26.83;93398.84;5058208;28;20189;-59
2022/06/09 03:52:50;;;;;;;6.47;3.10;;;;;;;35.66;28.19;93396.25;5047446;28;20232;-58
2022/06/09 03:55:34;;;;;;;8.23;2.60;;;;;;;35.30;28.29;93398.81;5050377;28;20252;-58
2022/06/09 03:58:18;;;;;;;4.33;2.60;;;;;;;35.05;28.04;93394.50;5058468;28;20233;-58
2022/06/09 04:01:02;;;;;;;4.13;2.83;;;;;;;34.27;28.01;93403.94;5059643;28;20320;-58
2022/06/09 04:03:48;;;;;;;5.57;2.00;;;;;;;34.15;28.50;93410.06;5050839;28;20225;-58
2022/06/09 04:06:34;;;;;;;4.27;2.17;;;;;;;34.60;28.35;93413.22;5054413;28;20205;-58
2022/06/09 04:09:18;;;;;;;5.50;2.20;;;;;;;34.37;28.53;93424.06;5058312;28;20266;-58
2022/06/09 04:12:03;;;;;;;3.63;2.17;;;;;;;34.23;29.01;93418.59;5064416;28;20212;-58
2022/06/09 04:14:47;;;;;;;4.07;2.00;;;;;;;33.25;30.13;93417.34;5050998;28;20201;-60
2022/06/09 04:17:31;;;;;;;2.70;1.83;;;;;;;34.82;29.21;93421.34;5049833;28;20283;-60
2022/06/09 04:20:17;;;;;;;2.40;1.93;;;;;;;35.13;28.49;93426.25;5057523;28;20232;-60
2022/06/09 04:23:02;;;;;;;8.60;2.27;;;;;;;34.78;28.28;93424.38;5045607;28;20200;-61
2022/06/09 04:25:46;;;;;;;4.07;2.00;;;;;;;35.24;28.71;93422.28;5059915;28;20227;-60
2022/06/09 04:28:31;;;;;;;2.97;1.70;;;;;;;35.51;28.34;93422.22;5054060;28;20256;-60
2022/06/09 04:31:15;;;;;;;6.17;2.03;;;;;;;35.78;27.10;93430.13;5058973;28;20224;-60
2022/06/09 04:34:00;;;;;;;2.07;1.73;;;;;;;35.76;25.95;93438.94;5059382;28;20198;-60
2022/06/09 04:36:44;;;;;;;1.93;1.80;;;;;;;34.86;27.04;93444.53;5050460;28;20402;-60
2022/06/09 04:39:28;;;;;;;3.80;1.50;;;;;;;34.96;27.19;93442.81;5046843;28;20201;-60
2022/06/09 04:42:12;;;;;;;2.03;1.80;;;;;;;35.38;26.78;93444.47;5056372;28;20772;-60
2022/06/09 04:44:57;;;;;;;3.80;1.73;;;;;;;35.59;26.43;93445.28;5051883;28;20569;-60
2022/06/09 04:47:41;;;;;;;2.90;2.00;;;;;;;34.55;27.48;93438.09;5052539;28;20217;-60
2022/06/09 04:50:25;;;;;;;2.33;1.60;;;;;;;35.26;27.12;93439.72;5058745;28;20211;-60
2022/06/09 04:53:10;;;;;;;2.07;1.63;;;;;;;35.00;27.12;93449.22;5049945;28;20228;-60
2022/06/09 04:55:54;;;;;;;2.90;1.50;;;;;;;34.36;27.32;93440.06;5052179;28;20216;-61
2022/06/09 04:58:40;;;;;;;2.03;1.30;;;;;;;35.30;26.52;93445.41;5060293;28;20201;-61
2022/06/09 05:01:29;;;;;;;3.83;1.50;;;;;;;36.03;25.64;93442.44;5046833;28;20248;-61
2022/06/09 05:04:14;;;;;;;2.83;1.40;;;;;;;36.52;25.45;93434.97;5047516;28;20220;-61
2022/06/09 05:06:58;;;;;;;2.90;1.30;;;;;;;34.97;26.64;93433.28;5050010;28;20678;-61
2022/06/09 05:09:42;;;;;;;3.37;1.30;;;;;;;34.53;26.63;93443.97;5053798;28;20680;-61
2022/06/09 05:12:27;;;;;;;2.50;1.50;;;;;;;34.78;26.65;93447.66;5046361;28;20943;-60
2022/06/09 05:15:14;;;;;;;1.93;1.70;;;;;;;35.39;26.59;93440.06;5049133;28;20243;-61
2022/06/09 05:17:58;;;;;;;4.27;2.03;;;;;;;36.65;25.01;93441.81;5054130;28;20197;-61
2022/06/09 05:20:42;;;;;;;2.83;1.03;;;;;;;35.85;26.05;93440.13;5053869;28;20573;-61
2022/06/09 05:23:28;;;;;;;3.13;1.23;;;;;;;35.95;25.88;93451.44;5048601;28;20198;-61
2022/06/09 05:26:14;;;;;;;1.13;0.93;;;;;;;35.08;26.25;93457.72;5047819;28;20329;-61
2022/06/09 05:28:58;;;;;;;3.63;0.97;;;;;;;35.67;26.32;93462.53;5058853;28;20255;-61
2022/06/09 05:31:43;;;;;;;3.93;1.33;;;;;;;36.36;25.05;93469.03;5057696;28;20197;-61
2022/06/09 05:34:27;;;;;;;2.40;1.10;;;;;;;35.42;26.17;93461.13;5054556;28;20841;-61
2022/06/09 05:37:11;;;;;;;6.17;1.33;;;;;;;35.28;26.04;93465.19;5054193;28;20221;-61
2022/06/09 05:46:01;;;;;;;3.43;1.27;;;;;;;34.02;29.41;93480.16;5049811;28;20188;-79
2022/06/09 05:48:46;;;;;;;2.00;1.30;;;;;;;32.89;30.61;93479.78;5055536;28;20215;-71
2022/06/09 05:51:31;;;;;;;4.33;1.80;;;;;;;32.92;30.09;93489.88;5051037;28;20284;-72
2022/06/09 05:54:16;;;;;;;5.00;1.73;;;;;;;31.85;32.43;93492.47;5057845;28;20209;-75
2022/06/09 05:57:00;;;;;;;26.53;3.07;;;;;;;35.92;33.27;93499.69;5053364;28;20208;-69
2022/06/09 05:59:44;;;;;;;2.43;1.93;;;;;;;32.36;31.96;93489.47;5052450;28;20199;-80
2022/06/09 06:02:28;;;;;;;2.10;1.83;;;;;;;32.54;30.73;93497.09;5051972;28;20253;-78
2022/06/09 06:08:29;;;;;;;1.83;1.63;;;;;;;32.72;30.58;93498.97;5049378;28;20214;-70
2022/06/09 06:11:16;;;;;;;3.10;1.83;;;;;;;33.05;30.60;93499.75;5059152;28;20216;-70
2022/06/09 06:14:01;;;;;;;4.60;1.83;;;;;;;33.12;32.46;93509.06;5056030;28;20257;-67
2022/06/09 06:16:46;;;;;;;3.90;2.03;;;;;;;33.47;30.91;93517.78;5052916;28;20287;-71
2022/06/09 06:19:30;;;;;;;2.00;1.80;;;;;;;32.90;30.66;93507.31;5056754;28;20201;-70
2022/06/09 06:22:14;;;;;;;1.80;1.63;;;;;;;31.40;33.01;93509.81;5053572;28;20285;-71
2022/06/09 06:24:59;;;;;;;2.20;1.80;;;;;;;32.10;32.16;93505.09;5050936;28;20198;-66
2022/06/09 06:27:43;;;;;;;1.50;1.40;;;;;;;32.31;32.97;93514.19;5057511;28;20232;-69
2022/06/09 06:30:27;;;;;;;2.33;1.87;;;;;;;32.40;32.77;93524.22;5060019;28;20216;-69
2022/06/09 06:33:11;;;;;;;2.27;1.57;;;;;;;32.24;32.64;93524.47;5048449;28;20781;-68
2022/06/09 06:35:59;;;;;;;6.20;1.70;;;;;;;31.82;32.93;93528.03;5056390;28;20197;-71
2022/06/09 06:38:44;;;;;;;7.90;1.90;;;;;;;30.55;35.85;93545.53;5060951;28;20197;-69
2022/06/09 06:41:30;;;;;;;11.73;1.83;;;;;;;28.55;39.07;93553.88;5063137;28;20220;-69
2022/06/09 06:44:13;;;;;;;7.07;1.60;;;;;;;29.03;40.82;93548.69;5055012;28;20213;-65
2022/06/09 06:46:57;;;;;;;2.00;1.30;;;;;;;29.47;37.40;93547.78;5056962;28;20197;-77
2022/06/09 06:49:42;;;;;;;1.40;1.00;;;;;;;30.97;35.60;93546.53;5055190;28;20209;-78
2022/06/09 06:52:27;;;;;;;3.03;1.20;;;;;;;31.09;34.11;93555.09;5052699;28;20588;-73
2022/06/09 06:55:16;;;;;;;1.70;1.10;;;;;;;32.84;33.43;93557.50;5058012;28;20592;-72
2022/06/09 06:58:00;;;;;;;1.60;1.50;;;;;;;32.79;31.89;93558.31;5055827;28;20218;-72
2022/06/09 07:00:44;;;;;;;3.27;1.47;;;;;;;32.20;32.68;93562.25;5047266;28;20229;-71
2022/06/09 07:03:31;;;;;;;2.23;1.20;;;;;;;31.66;32.89;93547.09;5055387;28;20225;-72
2022/06/09 07:06:15;;;;;;;1.40;1.30;;;;;;;30.17;34.70;93560.31;5050769;28;20637;-68
2022/06/09 07:08:59;;;;;;;2.10;1.57;;;;;;;30.49;35.81;93557.16;5061266;28;20623;-70
2022/06/09 07:11:45;;;;;;;2.00;1.70;;;;;;;30.47;35.35;93557.16;5057771;28;20192;-66
2022/06/09 07:14:29;;;;;;;1.90;1.30;;;;;;;29.50;35.93;93557.88;5050233;28;20198;-64
2022/06/09 07:17:13;;;;;;;7.00;1.87;;;;;;;30.37;36.64;93557.94;5057382;28;20754;-67
2022/06/09 07:19:56;;;;;;;10.57;1.60;;;;;;;27.90;39.68;93555.38;5056715;28;20194;-66
2022/06/09 07:22:41;;;;;;;2.53;1.83;;;;;;;27.40;40.25;93565.38;5047918;28;20287;-68
2022/06/09 07:25:26;;;;;;;4.37;2.27;;;;;;;29.51;36.18;93585.28;5059858;28;20205;-71
2022/06/09 07:28:10;;;;;;;3.73;2.40;;;;;;;30.20;35.81;93587.75;5057043;28;20835;-73
2022/06/09 07:30:56;;;;;;;3.03;2.20;;;;;;;30.30;35.33;93590.56;5053860;28;20193;-73
2022/06/09 07:33:41;;;;;;;3.53;2.20;;;;;;;29.03;37.66;93586.94;5063666;28;20209;-70
2022/06/09 07:36:26;;;;;;;3.50;2.13;;;;;;;30.86;34.25;93595.81;5047057;28;20194;-68
2022/06/09 07:39:10;;;;;;;5.37;2.57;;;;;;;30.31;35.21;93597.75;5050602;28;20265;-69
2022/06/09 07:41:55;;;;;;;3.53;2.07;;;;;;;30.53;34.62;93601.22;5050065;28;20214;-68
2022/06/09 07:44:39;;;;;;;2.93;1.83;;;;;;;30.31;35.13;93609.31;5043194;28;20201;-66
2022/06/09 07:47:25;;;;;;;2.50;1.83;;;;;;;32.02;33.66;93600.91;5049142;28;20275;-68
2022/06/09 07:50:10;;;;;;;4.23;2.20;;;;;;;31.34;35.56;93593.84;5047551;28;20796;-69
2022/06/09 07:52:54;;;;;;;3.40;1.90;;;;;;;29.13;36.93;93604.19;5059489;28;20269;-71
2022/06/09 07:55:39;;;;;;;4.47;1.70;;;;;;;30.64;36.14;93616.28;5050769;28;20681;-70
2022/06/09 07:58:23;;;;;;;8.27;2.33;;;;;;;31.37;34.31;93611.91;5054880;28;20277;-71
2022/06/09 08:01:07;;;;;;;3.43;1.90;;;;;;;32.13;33.00;93618.88;5056512;28;20602;-71
2022/06/09 08:03:53;;;;;;;2.60;1.50;;;;;;;32.65;32.18;93622.41;5047894;28;20209;-70
2022/06/09 08:06:38;;;;;;;3.70;1.63;;;;;;;32.62;32.22;93627.53;5047266;28;20257;-72
2022/06/09 08:09:22;;;;;;;3.67;1.67;;;;;;;32.65;32.63;93628.91;5055352;28;20567;-73
2022/06/09 08:12:07;;;;;;;3.47;1.60;;;;;;;31.79;33.59;93628.06;5058341;28;20185;-70
2022/06/09 08:14:51;;;;;;;4.57;1.60;;;;;;;32.42;33.23;93624.97;5054532;28;20196;-63
2022/06/09 08:17:36;;;;;;;3.43;1.43;;;;;;;32.66;32.91;93618.78;5057427;28;20266;-63
2022/06/09 08:20:22;;;;;;;2.10;1.30;;;;;;;33.54;31.30;93632.41;5054592;28;20294;-62
2022/06/09 08:23:10;;;;;;;5.70;1.70;;;;;;;35.16;32.02;93634.47;5049598;28;20784;-62
2022/06/09 08:25:58;;;;;;;5.63;1.53;;;;;;;34.28;30.89;93635.19;5049606;28;20307;-61
2022/06/09 08:28:42;;;;;;;3.47;1.30;;;;;;;34.51;31.44;93630.25;5051740;28;20723;-60
2022/06/09 08:31:26;;;;;;;3.33;1.43;;;;;;;34.22;31.18;93630.22;5039123;28;20186;-60
2022/06/09 08:34:11;;;;;;;3.70;1.43;;;;;;;34.72;29.35;93642.16;5052876;28;20302;-60
2022/06/09 08:36:55;;;;;;;3.23;1.20;;;;;;;35.02;30.45;93646.50;5052623;28;20241;-62
2022/06/09 08:39:39;;;;;;;4.00;1.47;;;;;;;34.61;31.38;93644.59;5044271;28;20197;-62
2022/06/09 08:42:35;;;;;;;3.87;1.20;;;;;;;34.94;30.87;93652.50;5059007;28;20197;-61
2022/06/09 08:45:33;;;;;;;2.40;1.23;;;;;;;34.99;29.23;93650.94;5053513;28;20193;-62
2022/06/09 08:48:21;;;;;;;3.30;1.20;;;;;;;33.92;29.96;93651.25;5058177;28;20783;-61
2022/06/09 08:51:19;;;;;;;8.07;1.77;;;;;;;32.57;30.59;93651.56;5050862;28;20354;-62
2022/06/09 08:54:16;;;;;;;2.93;1.30;;;;;;;32.95;30.27;93659.66;5053163;28;20559;-62
2022/06/09 08:57:11;;;;;;;4.00;1.50;;;;;;;32.83;30.35;93651.16;5053643;28;20208;-62
2022/06/09 08:59:57;;;;;;;6.33;1.20;;;;;;;32.86;30.92;93664.16;5063233;28;20192;-62
2022/06/09 09:02:47;;;;;;;5.80;1.53;;;;;;;31.65;31.77;93661.56;5062329;28;20217;-62
2022/06/09 09:05:38;;;;;;;1.67;1.20;;;;;;;34.14;29.19;93668.19;5054436;28;20209;-63
2022/06/09 09:08:22;;;;;;;3.87;1.20;;;;;;;33.02;29.07;93675.47;5055639;28;20241;-63
2022/06/09 09:11:09;;;;;;;5.07;1.40;;;;;;;31.20;32.41;93672.19;5054192;28;20794;-62
2022/06/09 09:14:11;;;;;;;7.90;1.60;;;;;;;30.85;32.13;93687.00;5053075;28;20205;-63
2022/06/09 09:17:09;;;;;;;3.07;1.43;;;;;;;26.87;41.33;93690.94;5057037;28;20282;-82
2022/06/09 09:20:14;;;;;;;4.63;1.67;;;;;;;26.28;43.76;93692.66;5060946;28;20243;-82
2022/06/09 09:23:11;;;;;;;6.63;2.20;;;;;;;28.16;40.71;93696.56;5055331;28;20205;-80
2022/06/09 09:26:09;;;;;;;6.40;1.87;;;;;;;27.66;39.20;93700.72;5054028;28;20824;-84
2022/06/09 09:29:10;;;;;;;5.33;1.70;;;;;;;28.25;38.16;93698.03;5057577;28;20193;-83
2022/06/09 09:31:58;;;;;;;2.57;1.53;;;;;;;29.02;36.76;93703.78;5048361;28;20189;-83
2022/06/09 09:34:45;;;;;;;9.30;2.00;;;;;;;27.65;39.41;93715.88;5051409;28;20201;-80
2022/06/09 09:37:45;;;;;;;8.20;2.53;;;;;;;29.25;36.49;93708.06;5058741;28;20277;-81
2022/06/09 09:40:34;;;;;;;5.43;2.20;;;;;;;29.57;37.06;93709.41;5061170;28;20331;-73
2022/06/09 09:43:24;;;;;;;5.17;1.70;;;;;;;31.32;34.75;93721.28;5058917;28;20202;-70
2022/06/09 09:46:25;;;;;;;5.10;2.07;;;;;;;32.05;34.32;93711.75;5062149;28;20197;-75
2022/06/09 09:49:20;;;;;;;4.40;1.60;;;;;;;32.62;33.83;93722.56;5061526;28;20677;-64
2022/06/09 09:52:37;;;;;;;4.73;1.53;;;;;;;32.75;34.69;93718.03;5060232;28;20220;-74
2022/06/09 09:55:35;;;;;;;7.17;1.40;;;;;;;33.08;33.31;93718.22;5038992;28;20244;-71
2022/06/09 09:58:29;;;;;;;4.93;1.40;;;;;;;33.51;34.77;93721.09;5056335;28;20189;-70
2022/06/09 10:01:25;;;;;;;1.90;0.90;;;;;;;33.09;32.27;93726.16;5052576;28;20222;-72
2022/06/09 10:10:36;;;;;;;2.50;1.03;;;;;;;33.71;32.82;93721.44;5049796;28;20240;-61
2022/06/09 10:13:32;;;;;;;3.80;1.40;;;;;;;31.81;34.28;93735.25;5055901;28;20200;-61
2022/06/09 10:16:18;;;;;;;4.00;0.97;;;;;;;30.75;34.93;93744.91;5055658;28;20196;-61
2022/06/09 10:19:05;;;;;;;1.53;0.90;;;;;;;31.10;35.52;93744.66;5062604;28;20204;-61
2022/06/09 10:22:17;;;;;;;1.70;0.80;;;;;;;30.51;35.71;93748.00;5049026;28;20221;-61
2022/06/09 10:25:18;;;;;;;1.37;0.73;;;;;;;32.50;33.31;93738.69;5051304;28;20275;-61
2022/06/09 10:28:30;;;;;;;2.23;0.60;;;;;;;32.23;33.23;93736.91;5053174;28;20267;-61
2022/06/09 10:31:36;;;;;;;1.87;0.77;;;;;;;33.97;30.45;93742.72;5055409;28;20296;-62
2022/06/09 10:34:39;;;;;;;4.00;0.80;;;;;;;34.20;29.43;93737.16;5062789;28;20205;-62
2022/06/09 10:37:42;;;;;;;3.30;0.80;;;;;;;32.67;30.83;93747.16;5056393;28;20193;-62
2022/06/09 10:40:39;;;;;;;2.53;0.70;;;;;;;33.47;29.63;93730.59;5062048;28;20271;-62
2022/06/09 10:43:34;;;;;;;3.93;0.90;;;;;;;32.75;30.04;93726.72;5056474;28;20294;-63
2022/06/09 10:46:33;;;;;;;1.53;0.67;;;;;;;32.92;30.21;93739.50;5053971;28;20193;-62
2022/06/09 10:56:04;;;;;;;3.20;0.77;;;;;;;33.69;27.86;93741.09;5055154;28;20225;-63
2022/06/09 10:58:56;;;;;;;3.03;0.77;;;;;;;34.59;26.39;93752.31;5067362;28;20665;-63
2022/06/09 11:01:40;;;;;;;5.50;1.07;;;;;;;33.65;26.36;93747.69;5054022;28;20317;-63
2022/06/09 11:04:31;;;;;;;2.10;0.80;;;;;;;35.07;25.04;93752.66;5055130;28;20800;-63
2022/06/09 11:07:33;;;;;;;3.93;1.30;;;;;;;32.29;28.00;93757.84;5056435;28;20209;-64
2022/06/09 11:10:25;;;;;;;6.97;1.13;;;;;;;30.99;30.03;93755.56;5054708;28;20190;-63
2022/06/09 11:13:11;;;;;;;1.20;0.60;;;;;;;29.60;32.22;93768.63;5059107;28;20255;-64
2022/06/09 11:16:05;;;;;;;0.73;0.60;;;;;;;30.21;33.63;93765.50;5054821;28;20197;-65
2022/06/09 11:19:15;;;;;;;4.30;1.00;;;;;;;30.01;33.62;93764.16;5059682;28;20300;-68
2022/06/09 11:22:31;;;;;;;2.23;0.90;;;;;;;30.82;33.97;93769.47;5052149;28;20217;-75
2022/06/09 11:25:21;;;;;;;2.60;0.70;;;;;;;29.49;33.96;93775.88;5051131;28;20252;-74
2022/06/09 11:28:17;;;;;;;0.80;0.60;;;;;;;29.16;35.98;93773.03;5050688;28;20209;-79
2022/06/09 11:31:27;;;;;;;0.63;0.63;;;;;;;29.10;34.78;93773.03;5051715;28;20592;-72
2022/06/09 11:34:26;;;;;;;1.97;1.10;;;;;;;29.66;34.28;93765.72;5042691;28;20866;-72
2022/06/09 11:37:32;;;;;;;1.67;1.10;;;;;;;30.96;33.61;93777.31;5057733;28;20582;-71
2022/06/09 11:40:41;;;;;;;2.63;0.90;;;;;;;31.26;34.59;93782.16;5062450;28;20264;-70
2022/06/09 11:44:02;;;;;;;4.73;1.17;;;;;;;32.08;34.13;93785.66;5055245;28;20216;-70
2022/06/09 11:46:49;;;;;;;0.97;0.83;;;;;;;32.06;32.56;93771.88;5044199;28;20201;-70
2022/06/09 11:49:43;;;;;;;1.67;0.80;;;;;;;31.86;32.94;93783.00;5047296;28;20202;-67
2022/06/09 11:52:37;;;;;;;2.87;1.00;;;;;;;30.87;34.00;93788.22;5059624;28;20694;-64
2022/06/09 11:58:39;;;;;;;2.87;1.03;;;;;;;32.26;32.75;93791.25;5059538;28;20614;-62
2022/06/09 12:01:53;;;;;;;2.40;0.70;;;;;;;30.84;34.41;93783.94;5052639;28;20252;-63
2022/06/09 12:05:08;;;;;;;1.07;0.50;;;;;;;32.49;30.96;93795.28;5058614;28;20216;-63
2022/06/09 12:08:08;;;;;;;2.43;0.77;;;;;;;32.79;31.17;93790.50;5054018;28;20194;-62
2022/06/09 12:11:01;;;;;;;2.70;0.80;;;;;;;32.85;31.02;93790.41;5052550;28;20682;-62
2022/06/09 12:14:03;;;;;;;3.53;0.97;;;;;;;33.18;30.97;93791.38;5049711;28;20201;-61
2022/06/09 12:17:08;;;;;;;2.20;0.97;;;;;;;32.79;30.51;93793.41;5049362;28;20198;-62
2022/06/09 12:19:59;;;;;;;1.17;0.60;;;;;;;33.79;31.10;93796.13;5054003;28;20304;-63
2022/06/09 12:22:43;;;;;;;1.20;0.73;;;;;;;33.92;29.27;93797.34;5044979;28;20232;-62
2022/06/09 12:25:33;;;;;;;0.73;0.70;;;;;;;31.45;31.79;93795.00;5053979;28;20186;-62
2022/06/09 12:28:57;;;;;;;2.60;0.80;;;;;;;32.44;30.64;93791.00;5051792;28;20263;-62
2022/06/09 12:32:08;;;;;;;1.10;0.60;;;;;;;32.93;28.97;93796.13;5044908;28;20215;-62
2022/06/09 12:34:54;;;;;;;1.90;0.67;;;;;;;31.85;29.88;93798.97;5048006;28;20571;-63
2022/06/09 12:37:41;;;;;;;1.50;0.50;;;;;;;32.04;29.71;93800.16;5056168;28;20212;-63
2022/06/09 12:40:33;;;;;;;1.20;0.87;;;;;;;31.29;30.05;93804.53;5055841;28;20233;-63
2022/06/09 12:43:37;;;;;;;1.70;0.90;;;;;;;31.00;30.07;93805.50;5051198;28;20286;-63
2022/06/09 12:46:26;;;;;;;0.60;0.60;;;;;;;31.06;30.23;93819.94;5052057;28;20599;-62
2022/06/09 12:49:16;;;;;;;0.80;0.50;;;;;;;31.01;30.81;93830.09;5053975;28;20200;-62
2022/06/09 12:52:00;;;;;;;1.70;0.60;;;;;;;30.81;32.38;93837.47;5056399;28;20190;-61
2022/06/09 12:54:44;;;;;;;1.80;0.60;;;;;;;30.99;32.60;93851.09;5062065;28;20704;-60
2022/06/09 12:57:32;;;;;;;2.57;0.73;;;;;;;31.92;33.90;93855.38;5048733;28;20625;-60
2022/06/09 13:00:21;;;;;;;1.77;0.80;;;;;;;31.16;31.69;93880.69;5053989;28;20193;-60
2022/06/09 13:03:24;;;;;;;1.40;0.80;;;;;;;30.49;34.24;93863.72;5057758;28;20239;-81
2022/06/09 13:06:21;;;;;;;2.73;0.60;;;;;;;30.12;33.16;93866.69;5050140;28;20201;-76
2022/06/09 13:09:19;;;;;;;2.10;1.00;;;;;;;29.98;33.54;93875.44;5049666;28;20188;-82
2022/06/09 13:15:37;;;;;;;1.97;0.70;;;;;;;32.73;32.49;93883.47;5066049;28;20199;-71
2022/06/09 13:18:27;;;;;;;4.13;1.03;;;;;;;33.30;30.36;93884.13;5051890;28;20198;-78
2022/06/09 13:21:20;;;;;;;2.40;1.00;;;;;;;33.53;30.21;93886.66;5049498;28;20261;-81
2022/06/09 13:24:32;;;;;;;1.90;0.90;;;;;;;34.16;31.49;93885.59;5050733;28;20197;-63
2022/06/09 13:27:19;;;;;;;1.80;1.47;;;;;;;34.20;30.15;93883.31;5058005;28;20217;-70
2022/06/09 13:30:24;;;;;;;2.70;2.00;;;;;;;34.02;31.02;93881.47;5051842;28;20241;-69
2022/06/09 13:33:29;;;;;;;2.47;1.10;;;;;;;34.64;32.06;93887.56;5055367;28;20180;-69
2022/06/09 13:36:24;;;;;;;1.70;0.80;;;;;;;35.05;30.19;93880.91;5050110;28;20318;-63
2022/06/09 13:39:27;;;;;;;1.10;0.70;;;;;;;33.95;30.50;93888.84;5051969;28;20256;-63
2022/06/09 13:42:20;;;;;;;2.57;0.73;;;;;;;32.78;29.82;93885.56;5051984;28;20224;-63
2022/06/09 13:45:14;;;;;;;3.40;0.80;;;;;;;34.05;30.64;93885.06;5052748;28;20196;-70
2022/06/09 13:48:18;;;;;;;2.83;1.20;;;;;;;33.93;30.99;93886.00;5054456;28;20218;-69